• Join FlightAware (Why Join?)
  • Login
  • US Flag 
05:29AM EST


 

Airport Tracker/Info


-or-


 

Live Flight TrackerFlight Track Log ✈ FFT931 ✈ 04-Sep-2013 ✈ KTTN - KTPA

Flight Track Log - Related Links

Times and Time Zones

All times are in EDT time to prevent confusion due to time zone crossing. See the FFT931 flight status page for this flight to view local times or setup timezone preferences in your user account.

Time Position Orientation Groundspeed Altitude Reporting Facility
EDT Latitude Longitude Course Direction KTS MPH feet Rate Location/Type
03:08PM 40.2370 -74.8620 223° Southwest 191 220 2,100  Level FlightAware
03:08PM 40.2220 -74.8810 224° Southwest 222 255 2,800 2,100 Climbing FlightAware
03:08PM 40.2060 -74.9020 225° Southwest 246 283 3,600 2,520 Climbing FlightAware
03:09PM 40.1860 -74.9260 223° Southwest 262 302 4,600 2,760 Climbing FlightAware
03:09PM 40.1780 -74.9320 210° Southwest 273 314 4,900 2,760 Climbing FlightAware
03:09PM 40.1550 -74.9470 206° Southwest 280 322 5,900 2,640 Climbing FlightAware
03:10PM 40.1270 -74.9660 207° Southwest 277 319 6,800 1,320 Climbing FlightAware
03:10PM 40.1050 -74.9820 209° Southwest 279 321 6,900 120 Climbing FlightAware
03:10PM 40.0850 -74.9950 206° Southwest 280 322 6,900 720 Level FlightAware
03:11PM 40.0520 -75.0180 208° Southwest 295 339 7,500 2,040 Climbing FlightAware
03:11PM 40.0300 -75.0340 209° Southwest 294 338 8,500 3,000 Climbing FlightAware
03:12PM 39.9950 -75.0570 207° Southwest 296 341 9,700 1,740 Climbing FlightAware
03:12PM 39.9710 -75.0740 208° Southwest 297 342 9,900 300 Climbing FlightAware
03:12PM 39.9460 -75.0910 208° Southwest 296 341 9,900  Level FlightAware
03:12PM 39.9220 -75.1080 209° Southwest 297 342 9,900  Level FlightAware
03:13PM 39.8970 -75.1250 208° Southwest 298 343 9,900 1,080 Level FlightAware
03:13PM 39.8630 -75.1480 207° Southwest 299 344 10,800 1,860 Climbing FlightAware
03:14PM 39.8190 -75.1780 208° Southwest 323 372 11,900 900 Climbing FlightAware
03:15PM 39.7700 -75.2120 208° Southwest 335 386 11,900  Level FlightAware
03:15PM 39.7200 -75.2460 208° Southwest 335 386 11,900  Level FlightAware
03:16PM 39.6750 -75.2760 207° Southwest 334 384 11,900  Level FlightAware
03:16PM 39.6240 -75.3040 203° Southwest 341 392 11,900  Level FlightAware
03:17PM 39.5690 -75.3150 189° South 343 395 11,900  Level FlightAware
03:18PM 39.5020 -75.3270 188° South 345 397 11,900 360 Level FlightAware
03:18PM 39.4480 -75.3370 188° South 344 396 12,400 1,740 Climbing FlightAware
03:19PM 39.3900 -75.3470 188° South 349 402 14,000 2,580 Climbing FlightAware
03:19PM 39.3390 -75.3570 189° South 354 407 15,300 2,340 Climbing FlightAware
03:20PM 39.2820 -75.3670 188° South 360 414 16,700 1,380 Climbing FlightAware
03:20PM 39.2200 -75.3780 188° South 363 418 17,000 120 Climbing FlightAware
03:21PM 39.1560 -75.3880 187° South 364 419 16,900 -120 Descending FlightAware
03:22PM 39.1060 -75.3960 187° South 365 420 16,900 420 Level FlightAware
03:22PM 39.0420 -75.4050 186° South 365 420 17,400 1,500 Climbing FlightAware
03:23PM 38.9810 -75.4150 187° South 370 426 18,800 2,160 Climbing FlightAware
03:23PM 38.9190 -75.4240 186° South 378 435 20,000 2,100 Climbing FlightAware
03:24PM 38.8620 -75.4330 187° South 381 438 21,200 2,040 Climbing FlightAware
03:25PM 38.7990 -75.4420 186° South 389 448 22,300 1,860 Climbing FlightAware
03:25PM 38.7350 -75.4520 187° South 392 451 23,500 1,860 Climbing FlightAware
03:26PM 38.6700 -75.4620 187° South 396 456 24,600 1,680 Climbing FlightAware
03:26PM 38.6090 -75.4710 187° South 403 464 25,500 1,620 Climbing FlightAware
03:27PM 38.5470 -75.4800 186° South 409 471 26,400 1,500 Climbing FlightAware
03:27PM 38.4720 -75.4920 187° South 419 482 27,300 1,320 Climbing FlightAware
03:28PM 38.4110 -75.5010 187° South 424 488 28,000 1,200 Climbing FlightAware
03:29PM 38.3260 -75.5350 197° South 427 491 28,900 1,260 Climbing FlightAware
03:29PM 38.2730 -75.5790 213° Southwest 424 488 29,700 1,260 Climbing FlightAware
03:30PM 38.2190 -75.6290 216° Southwest 429 494 30,300 1,080 Climbing FlightAware
03:30PM 38.1600 -75.6850 217° Southwest 433 498 31,000 1,020 Climbing FlightAware
03:31PM 38.1020 -75.7400 217° Southwest 438 504 31,600 1,260 Climbing FlightAware
03:32PM 38.0510 -75.7880 217° Southwest 426 490 32,500 1,500 Climbing FlightAware
03:32PM 37.9940 -75.8410 216° Southwest 421 484 33,400 1,320 Climbing FlightAware
03:33PM 37.9420 -75.8900 217° Southwest 424 488 34,000 1,440 Climbing FlightAware
03:34PM 37.8740 -75.9520 216° Southwest 422 486 35,200 1,500 Climbing FlightAware
03:34PM 37.8080 -76.0140 217° Southwest 415 478 36,100 1,200 Climbing FlightAware
03:35PM 37.7520 -76.0670 217° Southwest 414 476 36,700 840 Climbing FlightAware
03:35PM 37.7050 -76.1110 217° Southwest 407 468 37,100 900 Climbing FlightAware
03:36PM 37.6450 -76.1690 217° Southwest 409 471 37,800 720 Climbing FlightAware
03:36PM 37.5970 -76.2140 217° Southwest 404 465 38,000 180 Climbing FlightAware
03:37PM 37.5460 -76.2620 217° Southwest 410 472 38,000  Level FlightAware
03:38PM 37.4860 -76.3180 217° Southwest 414 476 38,000  Level FlightAware
03:38PM 37.4330 -76.3680 217° Southwest 413 475 38,000  Level FlightAware
03:39PM 37.3800 -76.4180 217° Southwest 413 475 38,000  Level FlightAware
03:39PM 37.3250 -76.4690 216° Southwest 413 475 38,000  Level FlightAware
03:40PM 37.2780 -76.5130 217° Southwest 413 475 38,000  Level FlightAware
03:41PM 37.2230 -76.5650 217° Southwest 414 476 38,000  Level FlightAware
03:41PM 37.1650 -76.6190 217° Southwest 415 478 38,000  Level FlightAware
03:42PM 37.1130 -76.6670 216° Southwest 414 476 38,000  Level FlightAware
03:42PM 37.0590 -76.7180 217° Southwest 415 478 38,000  Level FlightAware
03:43PM 36.9990 -76.7730 216° Southwest 415 478 38,000  Level FlightAware
03:44PM 36.9500 -76.8190 217° Southwest 415 478 38,000  Level FlightAware
03:44PM 36.8780 -76.8840 216° Southwest 415 478 38,000  Level FlightAware
03:45PM 36.8300 -76.9270 216° Southwest 415 478 38,000  Level FlightAware
03:46PM 36.7420 -77.0090 217° Southwest 416 479 38,000  Level FlightAware
03:46PM 36.6750 -77.0720 217° Southwest 418 481 38,000  Level FlightAware
03:47PM 36.5980 -77.1410 216° Southwest 419 482 38,000  Level FlightAware
03:48PM 36.5370 -77.1970 216° Southwest 419 482 38,000  Level FlightAware
03:48PM 36.4850 -77.2450 217° Southwest 419 482 38,000  Level FlightAware
03:49PM 36.4310 -77.2940 216° Southwest 420 483 38,000  Level FlightAware
03:50PM 36.3670 -77.3520 216° Southwest 419 482 38,000  Level FlightAware
03:50PM 36.3160 -77.3980 216° Southwest 418 481 38,000  Level FlightAware
03:51PM 36.2650 -77.4450 217° Southwest 418 481 38,000  Level FlightAware
03:51PM 36.2040 -77.4990 216° Southwest 418 481 38,000  Level FlightAware
03:52PM 36.1500 -77.5480 216° Southwest 420 483 38,000  Level FlightAware
03:53PM 36.0930 -77.5990 216° Southwest 420 483 38,000  Level FlightAware
03:53PM 36.0450 -77.6420 216° Southwest 421 484 38,000  Level FlightAware
03:54PM 35.9840 -77.6970 216° Southwest 421 484 38,000  Level FlightAware
03:54PM 35.9360 -77.7420 217° Southwest 420 483 38,000  Level FlightAware
03:55PM 35.8820 -77.7950 218° Southwest 421 484 38,000  Level FlightAware
03:56PM 35.8210 -77.8530 218° Southwest 422 486 38,000  Level FlightAware
03:56PM 35.7710 -77.9010 218° Southwest 423 487 38,000  Level FlightAware
03:57PM 35.7190 -77.9510 218° Southwest 423 487 38,000  Level FlightAware
03:57PM 35.6560 -78.0100 217° Southwest 425 489 38,000  Level FlightAware
03:58PM 35.6080 -78.0560 218° Southwest 424 488 38,000  Level FlightAware
03:59PM 35.5470 -78.1130 217° Southwest 424 488 38,000  Level FlightAware
03:59PM 35.4920 -78.1660 218° Southwest 424 488 38,000  Level FlightAware
04:00PM 35.4490 -78.2070 218° Southwest 423 487 38,000  Level FlightAware
04:00PM 35.3920 -78.2610 218° Southwest 423 487 38,000  Level FlightAware
04:01PM 35.3400 -78.3100 218° Southwest 422 486 38,000  Level FlightAware
04:02PM 35.2760 -78.3700 217° Southwest 415 478 38,000  Level FlightAware
04:02PM 35.2180 -78.4240 217° Southwest 422 486 38,000  Level FlightAware
04:03PM 35.1710 -78.4690 218° Southwest 423 487 38,000  Level FlightAware
04:03PM 35.0950 -78.5400 217° Southwest 422 486 38,000  Level FlightAware
04:04PM 35.0450 -78.5860 217° Southwest 422 486 38,000  Level FlightAware
04:05PM 34.9690 -78.6570 217° Southwest 478 550 38,000  Level FlightAware
04:05PM 34.9080 -78.7140 217° Southwest 425 489 38,000  Level FlightAware
04:06PM 34.8600 -78.7590 218° Southwest 426 490 38,000  Level FlightAware
04:07PM 34.8040 -78.8110 217° Southwest 427 491 38,000  Level FlightAware
04:07PM 34.7460 -78.8640 217° Southwest 428 493 38,000  Level FlightAware
04:08PM 34.6930 -78.9130 217° Southwest 428 493 38,000  Level FlightAware
04:08PM 34.6290 -78.9720 217° Southwest 428 493 38,000  Level FlightAware
04:09PM 34.5650 -79.0310 217° Southwest 428 493 38,000  Level FlightAware
04:10PM 34.4480 -79.1380 217° Southwest 429 494 38,000  Level FlightAware
04:11PM 34.3792 -79.2044 217° Southwest 431 496 38,000  Level Jacksonville Center
04:12PM 34.2836 -79.2939 218° Southwest 431 496 38,000 -60 Level Jacksonville Center
04:13PM 34.1900 -79.3781 217° Southwest 431 496 37,900  Descending Jacksonville Center
04:14PM 34.0983 -79.4569 215° Southwest 425 489 38,000  Climbing Jacksonville Center
04:15PM 34.0047 -79.5433 217° Southwest 425 489 37,900  Descending Jacksonville Center
04:16PM 33.9089 -79.6294 217° Southwest 430 495 38,000  Climbing Jacksonville Center
04:17PM 33.8153 -79.7181 218° Southwest 430 495 38,000  Level Jacksonville Center
04:18PM 33.7258 -79.8161 222° Southwest 435 501 38,000  Level Jacksonville Center
04:19PM 33.6364 -79.9092 221° Southwest 435 501 38,000  Level Jacksonville Center
04:24PM 33.1260 -80.4310 221° Southwest 439 505 38,000  Level FlightAware
04:25PM 33.0790 -80.4780 220° Southwest 437 503 38,000  Level FlightAware
04:26PM 33.0180 -80.5360 219° Southwest 436 502 38,000  Level FlightAware
04:27PM 32.8550 -80.6940 219° Southwest 435 501 38,000  Level FlightAware
04:28PM 32.7980 -80.7490 219° Southwest 437 503 38,000  Level FlightAware
04:29PM 32.7480 -80.7980 220° Southwest 437 503 38,000  Level FlightAware
04:29PM 32.6910 -80.8530 219° Southwest 438 504 38,000  Level FlightAware
04:30PM 32.6390 -80.9040 220° Southwest 439 505 38,000  Level FlightAware
04:30PM 32.5790 -80.9600 218° Southwest 439 505 38,000  Level FlightAware
04:31PM 32.4730 -81.0620 219° Southwest 439 505 38,000  Level FlightAware
04:32PM 32.4160 -81.1200 221° Southwest 440 506 38,000  Level FlightAware
04:33PM 32.3610 -81.1760 221° Southwest 441 507 38,000  Level FlightAware
04:33PM 32.3060 -81.2310 220° Southwest 441 507 38,000  Level FlightAware
04:34PM 32.2540 -81.2810 219° Southwest 440 506 38,000  Level FlightAware
04:34PM 32.1950 -81.3360 218° Southwest 438 504 38,000  Level FlightAware
04:35PM 32.1460 -81.3840 220° Southwest 439 505 38,000  Level FlightAware
04:36PM 32.0800 -81.4470 219° Southwest 440 506 38,000  Level FlightAware
04:36PM 32.0160 -81.5090 219° Southwest 440 506 38,000  Level FlightAware
04:37PM 31.9680 -81.5550 219° Southwest 440 506 38,000  Level FlightAware
04:38PM 31.9220 -81.5980 218° Southwest 440 506 38,000  Level FlightAware
04:38PM 31.8730 -81.6450 219° Southwest 440 506 38,000  Level FlightAware
04:39PM 31.8250 -81.6910 219° Southwest 440 506 38,000  Level FlightAware
04:39PM 31.7770 -81.7370 219° Southwest 440 506 38,000  Level FlightAware
04:40PM 31.7280 -81.7830 219° Southwest 440 506 38,000  Level FlightAware
04:41PM 31.5600 -81.8590 201° Southwest 441 507 38,000  Level FlightAware
04:41PM 31.5020 -81.8950 208° Southwest 440 506 38,000  Level FlightAware
04:42PM 31.4420 -81.9310 207° Southwest 440 506 38,000  Level FlightAware
04:43PM 31.3850 -81.9650 207° Southwest 440 506 38,000  Level FlightAware
04:43PM 31.2930 -82.0040 200° South 432 497 38,000  Level FlightAware
04:44PM 31.2020 -82.0340 196° South 432 497 38,000  Level FlightAware
04:45PM 31.1150 -82.0500 189° South 435 501 38,000  Level FlightAware
04:45PM 31.0460 -82.0640 190° South 435 501 38,000  Level FlightAware
04:46PM 30.9710 -82.0800 190° South 433 498 38,000  Level FlightAware
04:46PM 30.9090 -82.0920 189° South 433 498 38,000  Level FlightAware
04:47PM 30.8370 -82.1070 190° South 433 498 38,000  Level FlightAware
04:48PM 30.7730 -82.1200 190° South 432 497 38,000  Level FlightAware
04:48PM 30.7000 -82.1350 190° South 431 496 38,000  Level FlightAware
04:49PM 30.6310 -82.1490 190° South 430 495 38,000  Level FlightAware
04:49PM 30.5620 -82.1630 190° South 428 493 38,000  Level FlightAware
04:50PM 30.4930 -82.1770 190° South 427 491 38,000  Level FlightAware
04:50PM 30.4240 -82.1910 190° South 427 491 38,000  Level FlightAware
04:51PM 30.3610 -82.2040 190° South 427 491 38,000  Level FlightAware
04:52PM 30.2850 -82.2190 190° South 428 493 38,000  Level FlightAware
04:52PM 30.2180 -82.2320 190° South 430 495 38,000 -240 Level FlightAware
04:53PM 30.1600 -82.2440 190° South 433 498 37,800 -960 Descending FlightAware
04:53PM 30.0800 -82.2600 190° South 431 496 36,900 -1,920 Descending FlightAware
04:54PM 30.0100 -82.2740 190° South 433 498 35,400 -2,700 Descending FlightAware
04:55PM 29.9270 -82.2910 190° South 438 504 33,400 -2,700 Descending FlightAware
04:55PM 29.8590 -82.3010 187° South 455 524 32,100 -2,220 Descending FlightAware
04:56PM 29.7850 -82.2990 179° South 453 521 30,900 -1,980 Descending FlightAware
04:56PM 29.7050 -82.2960 178° South 440 506 29,700 -1,980 Descending FlightAware
04:57PM 29.6390 -82.2940 178° South 433 498 28,600 -2,280 Descending FlightAware
04:58PM 29.5710 -82.2910 178° South 426 490 27,200 -2,340 Descending FlightAware
04:58PM 29.4980 -82.2880 178° South 419 482 25,800 -2,100 Descending FlightAware
04:59PM 29.4360 -82.2850 178° South 409 471 24,800 -2,040 Descending FlightAware
04:59PM 29.3700 -82.2830 178° South 400 460 23,500 -2,100 Descending FlightAware
05:00PM 29.3030 -82.2800 178° South 392 451 22,300 -2,100 Descending FlightAware
05:01PM 29.2370 -82.2770 178° South 388 447 21,000 -2,040 Descending FlightAware
05:01PM 29.1770 -82.2750 178° South 379 436 19,900 -1,740 Descending FlightAware
05:02PM 29.1160 -82.2730 178° South 366 421 19,000 -1,740 Descending FlightAware
05:02PM 29.0570 -82.2700 177° South 359 413 17,900 -1,860 Descending FlightAware
05:03PM 29.0010 -82.2680 178° South 350 403 16,900 -1,800 Descending FlightAware
05:03PM 28.9480 -82.2660 178° South 345 397 15,900 -1,680 Descending FlightAware
05:04PM 28.8870 -82.2630 178° South 335 386 14,900 -1,680 Descending FlightAware
05:05PM 28.8400 -82.2620 179° South 333 383 14,000 -1,800 Descending FlightAware
05:05PM 28.7820 -82.2590 177° South 329 379 12,900 -960 Descending FlightAware
05:06PM 28.7300 -82.2470 169° South 307 353 12,900  Level FlightAware
05:06PM 28.6870 -82.2300 161° South 308 354 12,900  Level FlightAware
05:07PM 28.6350 -82.2160 167° South 308 354 12,900 -360 Level FlightAware
05:08PM 28.5830 -82.2090 173° South 302 348 12,500 -1,080 Descending FlightAware
05:08PM 28.5200 -82.2080 179° South 299 344 11,400 -1,500 Descending FlightAware
05:09PM 28.4630 -82.2070 179° South 293 337 10,400 -1,620 Descending FlightAware
05:10PM 28.4140 -82.2120 185° South 293 337 9,400 -1,680 Descending FlightAware
05:10PM 28.3860 -82.2220 197° South 289 333 8,800 -1,440 Descending FlightAware
05:10PM 28.3600 -82.2260 188° South 286 329 8,400 -1,380 Descending FlightAware
05:11PM 28.3400 -82.2280 185° South 285 328 8,000 -1,620 Descending FlightAware
05:11PM 28.2960 -82.2330 186° South 279 321 7,100 -1,200 Descending FlightAware
05:11PM 28.2770 -82.2360 188° South 277 319 7,000 -300 Descending FlightAware
05:12PM 28.2400 -82.2400 185° South 262 302 6,900 -180 Descending FlightAware
05:12PM 28.2180 -82.2430 187° South 256 295 6,900 -780 Level FlightAware
05:13PM 28.1940 -82.2460 186° South 260 299 6,400 -1,620 Descending FlightAware
05:13PM 28.1690 -82.2490 186° South 263 303 5,800 -1,620 Descending FlightAware
05:13PM 28.1380 -82.2530 186° South 260 299 5,200 -1,440 Descending FlightAware
05:14PM 28.1160 -82.2560 187° South 258 297 4,800 -1,500 Descending FlightAware
05:14PM 28.0910 -82.2590 186° South 256 295 4,200 -1,500 Descending FlightAware
05:14PM 28.0670 -82.2620 186° South 255 293 3,800 -1,020 Descending FlightAware
05:15PM 28.0420 -82.2660 188° South 241 277 3,500 -840 Descending FlightAware
05:15PM 28.0340 -82.2690 198° South 238 274 3,400 -780 Descending FlightAware
05:15PM 28.0260 -82.2750 214° Southwest 234 269 3,300 -1,020 Descending FlightAware
05:15PM 28.0230 -82.2780 221° Southwest 233 268 3,200 -1,020 Descending FlightAware
05:15PM 28.0190 -82.2860 240° Southwest 229 264 3,100 -660 Descending FlightAware
05:15PM 28.0100 -82.3080 245° Southwest 219 252 2,900 -720 Descending FlightAware
05:16PM 28.0020 -82.3300 248° West 201 231 2,600 -840 Descending FlightAware
05:16PM 27.9960 -82.3450 246° West 192 221 2,400 -720 Descending FlightAware
05:16PM 27.9890 -82.3630 246° West 178 205 2,200 -780 Descending FlightAware
05:17PM 27.9830 -82.3800 248° West 174 200 1,900 -780 Descending FlightAware
05:17PM 27.9780 -82.3960 251° West 168 193 1,700 -540 Descending FlightAware
05:17PM 27.9740 -82.4100 252° West 173 199 1,600 -600 Descending FlightAware
05:18PM 27.9710 -82.4230 255° West 164 189 1,400 -600 Descending FlightAware
05:18PM 27.9690 -82.4460 264° West 153 176 1,200 -540 Descending FlightAware
05:18PM 27.9690 -82.4600 270° West 144 166 1,000 -780 Descending FlightAware
05:19PM 27.9690 -82.4750 270° West 140 161 700 -960 Descending FlightAware
05:19PM 27.9700 -82.4890 275° West 140 161 400 -360 Descending FlightAware
05:20PM 27.9700 -82.5110 270° West 140 161 400  Level FlightAware